createdAt,value
2022-12-14T00:01:54.727Z,29.37
2022-12-14T00:04:22.816Z,30.00
2022-12-14T00:06:52.558Z,29.10
2022-12-14T00:09:20.652Z,27.97
2022-12-14T00:11:50.265Z,28.13
2022-12-14T00:14:18.363Z,29.23
2022-12-14T00:16:46.881Z,28.23
2022-12-14T00:19:15.583Z,28.37
2022-12-14T00:21:43.619Z,28.40
2022-12-14T00:24:13.066Z,27.83
2022-12-14T00:26:41.064Z,27.70
2022-12-14T00:29:09.069Z,27.57
2022-12-14T00:31:37.481Z,27.73
2022-12-14T00:34:05.524Z,26.97
2022-12-14T00:36:33.542Z,27.47
2022-12-14T00:39:01.554Z,27.10
2022-12-14T00:41:31.065Z,27.80
2022-12-14T00:43:59.181Z,26.03
2022-12-14T00:46:27.251Z,28.33
2022-12-14T00:48:55.289Z,28.23
2022-12-14T00:51:23.349Z,28.53
2022-12-14T00:53:51.327Z,28.07
2022-12-14T00:56:19.336Z,28.23
2022-12-14T00:58:53.024Z,26.77
2022-12-14T01:01:22.083Z,27.20
2022-12-14T01:03:50.426Z,27.57
2022-12-14T01:06:20.788Z,29.37
2022-12-14T01:08:49.564Z,27.83
2022-12-14T01:11:17.944Z,27.73
2022-12-14T01:13:49.303Z,28.63
2022-12-14T01:16:19.572Z,28.53
2022-12-14T01:18:47.660Z,27.97
2022-12-14T01:21:17.964Z,27.37
2022-12-14T01:23:47.305Z,28.50
2022-12-14T01:26:17.051Z,27.67
2022-12-14T01:28:46.061Z,26.97
2022-12-14T01:31:15.951Z,27.37
2022-12-14T01:33:46.131Z,26.83
2022-12-14T01:36:15.585Z,27.43
2022-12-14T01:38:43.988Z,27.03
2022-12-14T01:41:23.257Z,26.50
2022-12-14T01:43:53.270Z,27.30
2022-12-14T01:46:26.886Z,26.67
2022-12-14T01:49:03.169Z,27.03
2022-12-14T01:51:33.005Z,26.40
2022-12-14T01:54:02.788Z,26.13
2022-12-14T01:56:32.553Z,26.40
2022-12-14T01:59:05.558Z,25.67
2022-12-14T02:01:33.929Z,27.33
2022-12-14T02:04:05.012Z,26.73
2022-12-14T02:06:36.380Z,25.70
2022-12-14T02:09:07.465Z,25.70
2022-12-14T02:11:44.076Z,26.13
2022-12-14T02:14:12.066Z,25.70
2022-12-14T02:16:40.705Z,25.63
2022-12-14T02:19:10.319Z,26.27
2022-12-14T02:21:55.806Z,27.60
2022-12-14T02:24:48.564Z,26.83
2022-12-14T02:27:43.734Z,25.10
2022-12-14T02:30:16.454Z,26.43
2022-12-14T02:33:03.462Z,27.50
2022-12-14T02:35:39.960Z,26.43
2022-12-14T02:38:18.772Z,25.30
2022-12-14T02:40:58.748Z,27.10
2022-12-14T02:43:33.366Z,25.17
2022-12-14T02:46:13.156Z,25.57
2022-12-14T02:48:47.234Z,27.73
2022-12-14T02:51:21.669Z,27.83
2022-12-14T02:53:58.186Z,25.93
2022-12-14T02:56:32.981Z,26.00
2022-12-14T02:59:02.723Z,25.30
2022-12-14T03:01:32.960Z,25.67
2022-12-14T03:04:03.466Z,25.73
2022-12-14T03:06:31.586Z,25.50
2022-12-14T03:09:05.259Z,25.63
2022-12-14T03:11:41.589Z,26.57
2022-12-14T03:14:14.619Z,25.47
2022-12-14T03:16:48.237Z,25.23
2022-12-14T03:19:21.721Z,25.97
2022-12-14T03:21:53.114Z,25.10
2022-12-14T03:24:25.529Z,25.43
2022-12-14T03:26:57.571Z,26.70
2022-12-14T03:29:29.370Z,27.43
2022-12-14T03:32:01.321Z,25.80
2022-12-14T03:34:33.380Z,26.17
2022-12-14T03:37:09.646Z,27.13
2022-12-14T03:39:39.904Z,25.10
2022-12-14T03:42:15.252Z,25.03
2022-12-14T03:44:49.980Z,24.37
2022-12-14T03:47:42.443Z,24.40
2022-12-14T03:50:14.859Z,25.63
2022-12-14T03:52:50.593Z,25.17
2022-12-14T03:55:27.105Z,26.10
2022-12-14T03:58:08.862Z,24.77
2022-12-14T04:00:43.895Z,24.10
2022-12-14T04:03:22.310Z,25.97
2022-12-14T04:05:53.401Z,25.23
2022-12-14T04:08:25.802Z,26.53
2022-12-14T04:11:21.644Z,24.47
2022-12-14T04:14:14.796Z,25.13
2022-12-14T04:17:03.817Z,25.33
2022-12-14T04:19:40.869Z,25.50
2022-12-14T04:22:12.879Z,26.33
2022-12-14T04:25:03.474Z,25.73
2022-12-14T04:27:37.684Z,24.77
2022-12-14T04:30:06.693Z,24.07
2022-12-14T04:32:38.847Z,23.70
2022-12-14T04:35:16.337Z,24.77
2022-12-14T04:37:46.443Z,24.23
2022-12-14T04:40:21.490Z,25.37
2022-12-14T04:42:54.460Z,25.47
2022-12-14T04:45:26.460Z,24.87
2022-12-14T04:48:01.236Z,24.20
2022-12-14T04:50:35.836Z,23.43
2022-12-14T04:53:10.397Z,23.57
2022-12-14T04:55:45.118Z,24.50
2022-12-14T04:58:22.096Z,24.53
2022-12-14T05:01:06.239Z,23.97
2022-12-14T05:03:37.300Z,25.30
2022-12-14T05:06:16.977Z,23.03
2022-12-14T05:09:05.066Z,23.13
2022-12-14T05:11:54.553Z,23.87
2022-12-14T05:14:29.603Z,24.40
2022-12-14T05:17:02.279Z,23.27
2022-12-14T05:19:33.222Z,24.37
2022-12-14T05:22:07.237Z,25.07
2022-12-14T05:24:35.577Z,24.30
2022-12-14T05:27:03.585Z,23.07
2022-12-14T05:29:31.561Z,24.77
2022-12-14T05:31:59.696Z,25.07
2022-12-14T05:34:27.702Z,23.67
2022-12-14T05:36:55.801Z,25.17
2022-12-14T05:39:25.252Z,24.33
2022-12-14T05:41:53.629Z,23.33
2022-12-14T05:44:21.829Z,22.83
2022-12-14T05:46:49.953Z,24.17
2022-12-14T05:49:17.986Z,23.97
2022-12-14T05:51:45.973Z,24.40
2022-12-14T05:54:14.052Z,22.10
2022-12-14T05:56:43.389Z,25.50
2022-12-14T05:59:15.534Z,24.07
2022-12-14T06:01:44.188Z,24.47
2022-12-14T06:04:12.737Z,24.40
2022-12-14T06:06:40.892Z,22.87
2022-12-14T06:09:11.843Z,23.43
2022-12-14T06:11:41.325Z,22.90
2022-12-14T06:14:11.609Z,23.37
2022-12-14T06:16:41.293Z,23.00
2022-12-14T06:19:09.840Z,22.53
2022-12-14T06:21:40.052Z,23.20
2022-12-14T06:24:09.533Z,23.67
2022-12-14T06:26:37.958Z,23.03
2022-12-14T06:29:05.944Z,24.23
2022-12-14T06:31:35.406Z,23.50
2022-12-14T06:34:04.186Z,24.10
2022-12-14T06:36:34.124Z,24.90
2022-12-14T06:39:04.110Z,23.93
2022-12-14T06:41:32.214Z,23.30
2022-12-14T06:44:05.542Z,23.97
2022-12-14T06:46:35.298Z,22.13
2022-12-14T06:49:04.117Z,23.30
2022-12-14T06:51:32.164Z,23.07
2022-12-14T06:54:00.183Z,23.43
2022-12-14T06:56:28.926Z,24.67
2022-12-14T06:58:57.638Z,21.83
2022-12-14T07:01:26.944Z,22.33
2022-12-14T07:03:58.402Z,22.43
2022-12-14T07:06:27.808Z,23.20
2022-12-14T07:08:57.438Z,23.07
2022-12-14T07:11:26.154Z,21.97
2022-12-14T07:13:54.275Z,22.67
2022-12-14T07:16:23.819Z,22.27
2022-12-14T07:18:52.453Z,22.67
2022-12-14T07:21:23.620Z,22.70
2022-12-14T07:23:52.456Z,23.73
2022-12-14T07:26:22.714Z,22.57
2022-12-14T07:28:51.483Z,23.30
2022-12-14T07:31:21.867Z,23.67
2022-12-14T07:33:50.637Z,25.47
2022-12-14T07:36:21.555Z,27.57
2022-12-14T07:38:50.854Z,29.27
2022-12-14T07:41:23.159Z,27.43
2022-12-14T07:43:52.226Z,24.93
2022-12-14T07:46:23.732Z,24.47
2022-12-14T07:48:53.437Z,24.70
2022-12-14T07:51:24.385Z,23.70
2022-12-14T07:53:52.762Z,22.40
2022-12-14T07:56:22.326Z,21.40
2022-12-14T07:58:50.721Z,22.57
2022-12-14T08:01:21.243Z,22.10
2022-12-14T08:03:51.431Z,22.03
2022-12-14T08:06:20.871Z,22.23
2022-12-14T08:08:51.073Z,20.70
2022-12-14T08:11:19.200Z,21.57
2022-12-14T08:13:48.541Z,21.63
2022-12-14T08:16:17.737Z,20.93
2022-12-14T08:18:45.813Z,22.00
2022-12-14T08:21:15.441Z,22.47
2022-12-14T08:23:43.473Z,21.80
2022-12-14T08:26:12.849Z,22.73
2022-12-14T08:28:40.844Z,22.17
2022-12-14T08:31:10.880Z,23.17
2022-12-14T08:33:40.103Z,22.83
2022-12-14T08:36:09.676Z,22.93
2022-12-14T08:38:38.088Z,22.57
2022-12-14T08:41:07.219Z,23.23
2022-12-14T08:43:36.995Z,21.53
2022-12-14T08:46:05.577Z,23.77
2022-12-14T08:48:33.645Z,21.53
2022-12-14T08:51:05.742Z,22.60
2022-12-14T08:53:34.386Z,20.97
2022-12-14T08:56:06.269Z,21.13
2022-12-14T08:58:36.249Z,21.97
2022-12-14T09:01:05.412Z,21.50
2022-12-14T09:03:34.012Z,22.27
2022-12-14T09:06:06.664Z,22.97
2022-12-14T09:08:35.138Z,20.90
2022-12-14T09:11:04.524Z,20.50
2022-12-14T09:13:33.857Z,21.33
2022-12-14T09:16:06.701Z,19.97
2022-12-14T09:18:35.735Z,20.60
2022-12-14T09:21:04.514Z,20.33
2022-12-14T09:23:34.928Z,19.87
2022-12-14T09:26:04.394Z,21.13
2022-12-14T09:28:34.292Z,18.90
2022-12-14T09:31:05.561Z,19.80
2022-12-14T09:33:34.543Z,20.13
2022-12-14T09:36:03.745Z,19.33
2022-12-14T09:38:33.905Z,18.83
2022-12-14T09:41:07.206Z,17.67
2022-12-14T09:43:40.937Z,15.77
2022-12-14T09:46:33.338Z,16.43
2022-12-14T09:49:03.425Z,16.60
2022-12-14T09:51:35.191Z,15.40
2022-12-14T09:54:07.567Z,17.03
2022-12-14T09:56:37.905Z,17.83
2022-12-14T09:59:06.682Z,18.70
2022-12-14T10:04:58.757Z,17.70
2022-12-14T10:07:34.670Z,17.73
2022-12-14T10:10:06.313Z,15.90
2022-12-14T10:12:47.363Z,25.77
2022-12-14T10:15:25.683Z,16.90
2022-12-14T10:18:33.842Z,15.53
2022-12-14T10:21:07.057Z,16.80
2022-12-14T10:23:36.702Z,19.83
2022-12-14T10:26:09.051Z,17.80
2022-12-14T10:28:45.967Z,15.87
2022-12-14T10:31:19.666Z,15.23
2022-12-14T10:33:49.121Z,15.83
2022-12-14T10:36:23.423Z,17.17
2022-12-14T10:38:59.623Z,16.97
2022-12-14T10:41:39.618Z,15.93
2022-12-14T10:44:18.989Z,21.57
2022-12-14T10:46:53.614Z,16.07
2022-12-14T10:49:27.582Z,21.73
2022-12-14T10:52:02.433Z,25.33
2022-12-14T10:54:35.140Z,19.50
2022-12-14T10:57:03.211Z,21.97
2022-12-14T10:59:40.583Z,17.37
2022-12-14T11:02:16.952Z,19.27
2022-12-14T11:04:52.359Z,15.87
2022-12-14T11:07:22.584Z,15.83
2022-12-14T11:09:50.638Z,16.57
2022-12-14T11:12:22.059Z,16.40
2022-12-14T11:14:56.241Z,15.83
2022-12-14T11:17:37.267Z,15.67
2022-12-14T11:20:17.902Z,15.83
2022-12-14T11:22:47.685Z,14.67
2022-12-14T11:25:34.937Z,15.27
2022-12-14T11:28:06.692Z,15.77
2022-12-14T11:30:34.980Z,17.57
2022-12-14T11:33:03.100Z,19.30
2022-12-14T11:35:32.560Z,16.70
2022-12-14T11:38:02.171Z,16.80
2022-12-14T11:40:30.211Z,15.77
2022-12-14T11:43:04.584Z,17.63
2022-12-14T11:45:34.927Z,18.40
2022-12-14T11:48:29.243Z,16.20
2022-12-14T11:51:12.235Z,17.03
2022-12-14T11:53:40.548Z,16.47
2022-12-14T11:56:12.998Z,16.88
2022-12-14T11:58:49.201Z,21.00
2022-12-14T12:01:21.307Z,17.45
2022-12-14T12:03:52.634Z,33.20
2022-12-14T12:06:24.284Z,20.65
2022-12-14T12:08:56.965Z,43.83
2022-12-14T12:11:28.091Z,17.67
2022-12-14T12:14:01.619Z,18.08
2022-12-14T12:16:32.817Z,16.55
2022-12-14T12:19:11.800Z,16.40
2022-12-14T12:21:44.675Z,14.80
2022-12-14T12:24:19.502Z,15.38
2022-12-14T12:26:51.021Z,14.85
2022-12-14T12:29:26.394Z,13.27
2022-12-14T12:31:58.813Z,13.80
2022-12-14T12:34:32.001Z,15.05
2022-12-14T12:37:37.469Z,13.93
2022-12-14T12:40:01.365Z,14.32
2022-12-14T12:42:39.338Z,13.40
2022-12-14T12:45:16.887Z,13.93
2022-12-14T12:47:49.764Z,13.68
2022-12-14T12:50:20.398Z,13.15
2022-12-14T12:53:02.812Z,14.18
2022-12-14T12:55:35.493Z,14.27
2022-12-14T12:58:09.913Z,13.50
2022-12-14T13:00:41.229Z,13.50
2022-12-14T13:03:20.218Z,14.10
2022-12-14T13:05:49.296Z,13.75
2022-12-14T13:08:27.484Z,14.23
2022-12-14T13:13:51.351Z,13.50
2022-12-14T13:16:27.358Z,14.63
2022-12-14T13:19:18.963Z,13.80
2022-12-14T13:21:54.579Z,13.65
2022-12-14T13:24:25.753Z,12.82
2022-12-14T13:27:37.104Z,14.38
2022-12-14T13:30:16.052Z,12.73
2022-12-14T13:32:54.474Z,13.95
2022-12-14T13:35:44.921Z,12.90
2022-12-14T13:38:33.391Z,13.45
2022-12-14T13:41:20.976Z,13.65
2022-12-14T13:44:38.641Z,12.68
2022-12-14T13:47:16.568Z,12.75
2022-12-14T13:50:18.454Z,13.05
2022-12-14T13:52:43.958Z,13.88
2022-12-14T13:55:29.395Z,14.90
2022-12-14T13:58:17.407Z,15.00
2022-12-14T14:00:58.702Z,15.20
2022-12-14T14:03:47.466Z,14.95
2022-12-14T14:06:33.792Z,13.95
2022-12-14T14:09:40.308Z,14.00
2022-12-14T14:12:37.202Z,14.65
2022-12-14T14:15:38.365Z,14.88
2022-12-14T14:18:17.574Z,14.90
2022-12-14T14:20:47.724Z,14.52
2022-12-14T14:23:35.784Z,14.90
2022-12-14T14:26:25.953Z,13.77
2022-12-14T14:29:19.833Z,14.50
2022-12-14T14:31:59.971Z,13.90
2022-12-14T14:34:49.563Z,13.90
2022-12-14T14:37:30.561Z,13.10
2022-12-14T14:40:23.868Z,14.40
2022-12-14T14:43:06.573Z,13.50
2022-12-14T14:45:39.331Z,13.90
2022-12-14T14:48:22.262Z,13.37
2022-12-14T14:51:02.015Z,14.60
2022-12-14T14:53:32.945Z,14.47
2022-12-14T14:56:14.327Z,15.07
2022-12-14T14:58:43.281Z,13.70
2022-12-14T15:01:22.219Z,23.10
2022-12-14T15:03:56.386Z,25.77
2022-12-14T15:06:27.535Z,16.47
2022-12-14T15:09:00.841Z,16.80
2022-12-14T15:11:36.215Z,18.30
2022-12-14T15:14:15.069Z,17.53
2022-12-14T15:16:45.875Z,16.93
2022-12-14T15:19:25.084Z,16.10
2022-12-14T15:21:55.534Z,16.37
2022-12-14T15:24:25.306Z,15.80
2022-12-14T15:26:54.256Z,16.53
2022-12-14T15:29:27.705Z,16.30
2022-12-14T15:32:00.135Z,16.30
2022-12-14T15:34:29.779Z,16.80
2022-12-14T15:36:58.746Z,16.57
2022-12-14T15:39:45.815Z,17.73
2022-12-14T15:42:15.646Z,17.77
2022-12-14T15:44:51.105Z,16.93
2022-12-14T15:47:24.818Z,16.90
2022-12-14T15:49:59.717Z,15.90
2022-12-14T15:52:31.517Z,16.23
2022-12-14T15:55:00.925Z,17.50
2022-12-14T15:57:29.051Z,17.13
2022-12-14T15:59:58.746Z,18.20
2022-12-14T16:02:31.123Z,26.50
2022-12-14T16:05:03.467Z,19.10
2022-12-14T16:07:38.513Z,18.87
2022-12-14T16:10:21.317Z,19.60
2022-12-14T16:12:53.710Z,20.00
2022-12-14T16:15:24.711Z,20.83
2022-12-14T16:17:59.266Z,21.90
2022-12-14T16:20:32.314Z,24.40
2022-12-14T16:23:06.554Z,20.93
2022-12-14T16:25:36.706Z,22.23
2022-12-14T16:28:22.653Z,23.17
2022-12-14T16:30:56.592Z,20.77
2022-12-14T16:33:26.007Z,21.43
2022-12-14T16:36:07.400Z,24.30
2022-12-14T16:38:42.662Z,22.87
2022-12-14T16:41:10.941Z,22.70
2022-12-14T16:43:41.369Z,24.70
2022-12-14T16:46:17.877Z,22.87
2022-12-14T16:49:02.557Z,26.27
2022-12-14T16:52:05.659Z,24.30
2022-12-14T16:54:26.633Z,20.83
2022-12-14T16:57:00.049Z,21.77
2022-12-14T16:59:35.726Z,17.90
2022-12-14T17:02:04.189Z,19.03
2022-12-14T17:04:36.322Z,18.53
2022-12-14T17:07:05.853Z,18.13
2022-12-14T17:09:35.460Z,16.37
2022-12-14T17:12:12.457Z,17.80
2022-12-14T17:14:47.564Z,17.43
2022-12-14T17:17:22.136Z,17.10
2022-12-14T17:19:50.425Z,16.97
2022-12-14T17:22:25.705Z,17.20
2022-12-14T17:24:53.750Z,17.70
2022-12-14T17:27:26.647Z,18.07
2022-12-14T17:29:57.302Z,18.53
2022-12-14T17:32:29.941Z,19.83
2022-12-14T17:34:58.176Z,19.50
2022-12-14T17:37:34.135Z,19.17
2022-12-14T17:40:05.222Z,18.30
2022-12-14T17:42:33.293Z,18.20
2022-12-14T17:45:01.766Z,18.77
2022-12-14T17:47:29.916Z,20.20
2022-12-14T17:49:57.965Z,19.40
2022-12-14T17:52:30.310Z,20.83
2022-12-14T17:54:58.990Z,22.40
2022-12-14T17:57:27.849Z,22.23
2022-12-14T18:00:16.190Z,22.73
2022-12-14T18:02:46.564Z,21.03
2022-12-14T18:05:20.205Z,21.20
2022-12-14T18:07:50.386Z,21.50
2022-12-14T18:10:19.666Z,19.93
2022-12-14T18:12:49.343Z,18.87
2022-12-14T18:15:20.667Z,20.00
2022-12-14T18:17:49.641Z,20.33
2022-12-14T18:20:18.891Z,18.90
2022-12-14T18:22:49.552Z,18.83
2022-12-14T18:25:30.727Z,32.07
2022-12-14T18:28:00.029Z,27.63
2022-12-14T18:30:33.427Z,31.10
2022-12-14T18:33:07.055Z,28.60
2022-12-14T18:35:36.160Z,27.10
2022-12-14T18:38:04.320Z,24.93
2022-12-14T18:40:33.770Z,24.47
2022-12-14T18:43:01.838Z,28.67
2022-12-14T18:45:32.015Z,25.10
2022-12-14T18:48:00.733Z,23.80
2022-12-14T18:50:30.084Z,23.57
2022-12-14T18:52:58.474Z,22.77
2022-12-14T18:55:28.547Z,22.50
2022-12-14T18:58:00.696Z,22.37
2022-12-14T19:00:32.617Z,27.93
2022-12-14T19:03:02.670Z,22.97
2022-12-14T19:05:31.932Z,33.27
2022-12-14T19:08:01.550Z,23.93
2022-12-14T19:10:31.646Z,31.37
2022-12-14T19:13:01.040Z,24.03
2022-12-14T19:15:30.578Z,22.83
2022-12-14T19:17:59.181Z,23.17
2022-12-14T19:20:29.292Z,22.33
2022-12-14T19:22:57.521Z,20.83
2022-12-14T19:25:26.194Z,23.13
2022-12-14T19:28:30.361Z,22.33
2022-12-14T19:30:45.126Z,20.93
2022-12-14T19:33:13.563Z,24.10
2022-12-14T19:35:42.193Z,40.57
2022-12-14T19:38:13.635Z,25.37
2022-12-14T19:40:42.610Z,21.27
2022-12-14T19:43:10.636Z,22.03
2022-12-14T19:45:40.124Z,19.77
2022-12-14T19:48:13.097Z,23.03
2022-12-14T19:50:41.462Z,21.23
2022-12-14T19:53:09.502Z,22.03
2022-12-14T19:55:37.567Z,21.40
2022-12-14T19:58:05.597Z,19.83
2022-12-14T20:00:33.719Z,19.50
2022-12-14T20:03:01.816Z,20.70
2022-12-14T20:05:31.402Z,19.17
2022-12-14T20:07:59.471Z,20.87
2022-12-14T20:10:27.521Z,22.20
2022-12-14T20:12:55.553Z,21.67
2022-12-14T20:15:23.627Z,21.43
2022-12-14T20:17:51.632Z,22.63
2022-12-14T20:20:19.692Z,19.40
2022-12-14T20:22:49.399Z,19.20
2022-12-14T20:25:17.581Z,18.87
2022-12-14T20:27:45.617Z,18.03
2022-12-14T20:30:14.078Z,17.20
2022-12-14T20:32:42.093Z,17.73
2022-12-14T20:35:11.985Z,18.07
2022-12-14T20:37:40.110Z,19.47
2022-12-14T20:40:11.378Z,18.13
2022-12-14T20:42:39.479Z,16.37
2022-12-14T20:45:08.632Z,17.30
2022-12-14T20:47:36.898Z,18.47
2022-12-14T20:50:05.374Z,19.57
2022-12-14T20:52:33.384Z,17.70
2022-12-14T20:55:01.471Z,17.70
2022-12-14T20:57:33.051Z,18.70
2022-12-14T21:00:01.432Z,16.70
2022-12-14T21:02:29.743Z,17.67
2022-12-14T21:04:57.902Z,16.77
2022-12-14T21:07:26.497Z,16.10
2022-12-14T21:09:54.700Z,17.80
2022-12-14T21:12:21.807Z,16.43
2022-12-14T21:14:54.074Z,16.60
2022-12-14T21:17:24.059Z,16.77
2022-12-14T21:19:52.217Z,16.07
2022-12-14T21:22:21.933Z,16.87
2022-12-14T21:25:03.084Z,17.87
2022-12-14T21:27:32.899Z,16.63
2022-12-14T21:30:02.328Z,15.67
2022-12-14T21:32:30.517Z,15.60
2022-12-14T21:34:58.572Z,15.80
2022-12-14T21:37:26.968Z,15.27
2022-12-14T21:39:55.884Z,14.60
2022-12-14T21:42:23.858Z,14.83
2022-12-14T21:44:52.993Z,13.63
2022-12-14T21:47:24.491Z,13.30
2022-12-14T21:49:52.652Z,13.50
2022-12-14T21:52:22.965Z,14.57
2022-12-14T21:54:51.464Z,14.93
2022-12-14T21:57:40.332Z,16.03
2022-12-14T22:00:10.325Z,15.00
2022-12-14T22:02:43.039Z,16.23
2022-12-14T22:05:11.402Z,14.37
2022-12-14T22:07:39.476Z,14.37
2022-12-14T22:10:08.265Z,15.67
2022-12-14T22:12:36.532Z,14.00
2022-12-14T22:15:04.903Z,14.63
2022-12-14T22:17:32.972Z,15.83
2022-12-14T22:20:02.357Z,14.87
2022-12-14T22:22:30.450Z,14.10
2022-12-14T22:24:59.658Z,14.13
2022-12-14T22:27:27.725Z,14.20
2022-12-14T22:29:55.749Z,14.47
2022-12-14T22:32:24.091Z,15.50
2022-12-14T22:34:52.105Z,14.50
2022-12-14T22:37:21.896Z,15.40
2022-12-14T22:39:49.961Z,14.23
2022-12-14T22:42:17.960Z,14.17
2022-12-14T22:44:46.030Z,14.57
2022-12-14T22:47:14.033Z,15.87
2022-12-14T22:49:42.037Z,15.67
2022-12-14T22:52:10.164Z,15.50
2022-12-14T22:54:40.611Z,16.53
2022-12-14T22:57:10.997Z,15.83
2022-12-14T22:59:43.476Z,15.93
2022-12-14T23:02:11.821Z,16.70
2022-12-14T23:04:40.365Z,15.93
2022-12-14T23:07:08.498Z,16.27
2022-12-14T23:09:54.112Z,14.93
2022-12-14T23:12:41.169Z,15.57
2022-12-14T23:15:27.056Z,14.20
2022-12-14T23:18:14.009Z,15.57
2022-12-14T23:20:59.275Z,15.47
2022-12-14T23:23:44.626Z,14.97
2022-12-14T23:26:29.894Z,14.80
2022-12-14T23:29:16.869Z,15.83
2022-12-14T23:32:02.194Z,14.83
2022-12-14T23:34:48.112Z,14.47
2022-12-14T23:37:33.898Z,14.70
2022-12-14T23:40:19.297Z,15.40
2022-12-14T23:43:04.936Z,14.83
2022-12-14T23:45:51.855Z,12.77
2022-12-14T23:48:37.653Z,17.13
2022-12-14T23:51:23.357Z,15.43
2022-12-14T23:54:09.674Z,16.17
2022-12-14T23:57:03.423Z,15.80
2022-12-14T23:59:49.926Z,16.00
